sensor_id;sensor_type;location;lat;lon;timestamp;pressure;altitude;pressure_sealevel;temperature
69420;BMP280;56612;52.030;113.524;2022-12-01T01:39:27;93035.03;;;-15.77
69420;BMP280;56612;52.030;113.524;2022-12-01T01:42:30;93022.25;;;-15.94
69420;BMP280;56612;52.030;113.524;2022-12-01T01:45:34;93014.78;;;-15.75
69420;BMP280;56612;52.030;113.524;2022-12-01T01:48:39;93011.06;;;-15.63
69420;BMP280;56612;52.030;113.524;2022-12-01T01:51:47;93002.47;;;-15.65
69420;BMP280;56612;52.030;113.524;2022-12-01T01:54:52;93008.72;;;-15.38
69420;BMP280;56612;52.030;113.524;2022-12-01T01:57:57;93004.25;;;-15.21
69420;BMP280;56612;52.030;113.524;2022-12-01T02:01:01;93013.78;;;-15.10
69420;BMP280;56612;52.030;113.524;2022-12-01T02:04:04;93014.16;;;-14.95
69420;BMP280;56612;52.030;113.524;2022-12-01T02:07:10;93007.34;;;-14.75
69420;BMP280;56612;52.030;113.524;2022-12-01T02:10:15;93011.88;;;-14.40
69420;BMP280;56612;52.030;113.524;2022-12-01T02:13:37;93004.34;;;-14.32
69420;BMP280;56612;52.030;113.524;2022-12-01T02:16:51;93005.41;;;-14.17
69420;BMP280;56612;52.030;113.524;2022-12-01T02:26:43;93009.03;;;-14.42
69420;BMP280;56612;52.030;113.524;2022-12-01T02:33:32;92995.78;;;-14.11
69420;BMP280;56612;52.030;113.524;2022-12-01T02:36:48;92987.75;;;-13.96
69420;BMP280;56612;52.030;113.524;2022-12-01T02:43:49;92992.22;;;-13.72
69420;BMP280;56612;52.030;113.524;2022-12-01T02:46:56;92996.25;;;-13.76
69420;BMP280;56612;52.030;113.524;2022-12-01T02:50:02;92986.38;;;-13.72
69420;BMP280;56612;52.030;113.524;2022-12-01T02:53:11;92989.22;;;-13.76
69420;BMP280;56612;52.030;113.524;2022-12-01T02:56:19;92988.75;;;-13.50
69420;BMP280;56612;52.030;113.524;2022-12-01T02:59:24;92983.63;;;-13.06
69420;BMP280;56612;52.030;113.524;2022-12-01T03:02:34;92973.31;;;-13.25
69420;BMP280;56612;52.030;113.524;2022-12-01T03:06:09;92967.09;;;-13.11
69420;BMP280;56612;52.030;113.524;2022-12-01T03:09:45;92965.50;;;-12.95
69420;BMP280;56612;52.030;113.524;2022-12-01T03:16:31;92963.00;;;-13.01
69420;BMP280;56612;52.030;113.524;2022-12-01T03:19:47;92958.22;;;-12.72
69420;BMP280;56612;52.030;113.524;2022-12-01T03:22:55;92962.78;;;-12.65
69420;BMP280;56612;52.030;113.524;2022-12-01T03:26:03;92952.13;;;-12.75
69420;BMP280;56612;52.030;113.524;2022-12-01T03:29:15;92955.06;;;-12.65
69420;BMP280;56612;52.030;113.524;2022-12-01T03:32:51;92940.81;;;-12.34
69420;BMP280;56612;52.030;113.524;2022-12-01T03:36:00;92941.03;;;-12.64
69420;BMP280;56612;52.030;113.524;2022-12-01T03:39:11;92933.44;;;-12.56
69420;BMP280;56612;52.030;113.524;2022-12-01T03:42:22;92928.59;;;-12.47
69420;BMP280;56612;52.030;113.524;2022-12-01T03:45:55;92923.59;;;-12.39
69420;BMP280;56612;52.030;113.524;2022-12-01T03:48:58;92922.53;;;-12.17
69420;BMP280;56612;52.030;113.524;2022-12-01T03:55:19;92905.84;;;-11.97
69420;BMP280;56612;52.030;113.524;2022-12-01T03:58:30;92906.41;;;-12.31
69420;BMP280;56612;52.030;113.524;2022-12-01T04:01:36;92900.44;;;-12.26
69420;BMP280;56612;52.030;113.524;2022-12-01T04:04:39;92906.28;;;-12.25
69420;BMP280;56612;52.030;113.524;2022-12-01T04:07:43;92896.91;;;-12.23
69420;BMP280;56612;52.030;113.524;2022-12-01T04:10:46;92890.19;;;-12.58
69420;BMP280;56612;52.030;113.524;2022-12-01T04:13:50;92889.00;;;-12.57
69420;BMP280;56612;52.030;113.524;2022-12-01T04:16:54;92882.13;;;-12.68
69420;BMP280;56612;52.030;113.524;2022-12-01T04:19:58;92875.25;;;-12.46
69420;BMP280;56612;52.030;113.524;2022-12-01T04:23:02;92889.97;;;-12.28
69420;BMP280;56612;52.030;113.524;2022-12-01T04:26:06;92866.88;;;-12.33
69420;BMP280;56612;52.030;113.524;2022-12-01T04:29:16;92871.72;;;-12.43
69420;BMP280;56612;52.030;113.524;2022-12-01T04:32:20;92858.81;;;-12.56
69420;BMP280;56612;52.030;113.524;2022-12-01T04:35:23;92862.25;;;-12.67
69420;BMP280;56612;52.030;113.524;2022-12-01T04:38:27;92849.16;;;-12.82
69420;BMP280;56612;52.030;113.524;2022-12-01T04:41:32;92854.22;;;-12.77
69420;BMP280;56612;52.030;113.524;2022-12-01T04:44:35;92833.13;;;-12.75
69420;BMP280;56612;52.030;113.524;2022-12-01T04:47:39;92840.28;;;-12.68
69420;BMP280;56612;52.030;113.524;2022-12-01T04:50:42;92831.59;;;-12.65
69420;BMP280;56612;52.030;113.524;2022-12-01T04:53:45;92834.31;;;-12.76
69420;BMP280;56612;52.030;113.524;2022-12-01T04:56:48;92833.47;;;-12.52
69420;BMP280;56612;52.030;113.524;2022-12-01T04:59:51;92826.38;;;-12.46
69420;BMP280;56612;52.030;113.524;2022-12-01T05:02:54;92841.59;;;-12.62
69420;BMP280;56612;52.030;113.524;2022-12-01T05:06:08;92827.22;;;-12.83
69420;BMP280;56612;52.030;113.524;2022-12-01T05:09:14;92838.28;;;-12.75
69420;BMP280;56612;52.030;113.524;2022-12-01T05:12:19;92834.66;;;-12.67
69420;BMP280;56612;52.030;113.524;2022-12-01T05:15:23;92829.25;;;-12.50
69420;BMP280;56612;52.030;113.524;2022-12-01T05:18:26;92818.66;;;-12.46
69420;BMP280;56612;52.030;113.524;2022-12-01T05:21:29;92832.25;;;-12.19
69420;BMP280;56612;52.030;113.524;2022-12-01T05:24:33;92818.06;;;-12.39
69420;BMP280;56612;52.030;113.524;2022-12-01T05:27:36;92819.53;;;-12.57
69420;BMP280;56612;52.030;113.524;2022-12-01T05:30:40;92808.91;;;-12.80
69420;BMP280;56612;52.030;113.524;2022-12-01T05:33:44;92807.03;;;-12.79
69420;BMP280;56612;52.030;113.524;2022-12-01T05:36:47;92802.19;;;-12.70
69420;BMP280;56612;52.030;113.524;2022-12-01T05:39:51;92797.13;;;-12.75
69420;BMP280;56612;52.030;113.524;2022-12-01T05:42:56;92792.97;;;-12.92
69420;BMP280;56612;52.030;113.524;2022-12-01T05:46:00;92797.31;;;-12.73
69420;BMP280;56612;52.030;113.524;2022-12-01T05:49:04;92802.59;;;-12.79
69420;BMP280;56612;52.030;113.524;2022-12-01T05:52:08;92798.63;;;-12.80
69420;BMP280;56612;52.030;113.524;2022-12-01T05:55:11;92793.31;;;-13.01
69420;BMP280;56612;52.030;113.524;2022-12-01T05:58:15;92790.84;;;-13.06
69420;BMP280;56612;52.030;113.524;2022-12-01T06:01:18;92784.72;;;-13.03
69420;BMP280;56612;52.030;113.524;2022-12-01T06:04:22;92791.81;;;-13.09
69420;BMP280;56612;52.030;113.524;2022-12-01T06:07:26;92780.47;;;-13.01
69420;BMP280;56612;52.030;113.524;2022-12-01T06:10:30;92762.47;;;-13.01
69420;BMP280;56612;52.030;113.524;2022-12-01T06:13:34;92772.19;;;-12.94
69420;BMP280;56612;52.030;113.524;2022-12-01T06:16:38;92756.34;;;-12.98
69420;BMP280;56612;52.030;113.524;2022-12-01T06:19:41;92758.41;;;-12.96
69420;BMP280;56612;52.030;113.524;2022-12-01T06:22:49;92752.44;;;-13.18
69420;BMP280;56612;52.030;113.524;2022-12-01T06:25:53;92755.81;;;-13.09
69420;BMP280;56612;52.030;113.524;2022-12-01T06:28:56;92751.25;;;-13.17
69420;BMP280;56612;52.030;113.524;2022-12-01T06:32:00;92752.16;;;-13.14
69420;BMP280;56612;52.030;113.524;2022-12-01T06:35:04;92746.78;;;-13.16
69420;BMP280;56612;52.030;113.524;2022-12-01T06:38:08;92745.34;;;-13.12
69420;BMP280;56612;52.030;113.524;2022-12-01T06:41:12;92738.41;;;-13.17
69420;BMP280;56612;52.030;113.524;2022-12-01T06:44:15;92728.22;;;-13.22
69420;BMP280;56612;52.030;113.524;2022-12-01T06:47:19;92722.75;;;-13.00
69420;BMP280;56612;52.030;113.524;2022-12-01T06:50:23;92725.59;;;-13.03
69420;BMP280;56612;52.030;113.524;2022-12-01T06:53:28;92723.53;;;-12.92
69420;BMP280;56612;52.030;113.524;2022-12-01T06:56:31;92726.22;;;-13.16
69420;BMP280;56612;52.030;113.524;2022-12-01T06:59:35;92730.13;;;-12.96
69420;BMP280;56612;52.030;113.524;2022-12-01T07:02:39;92722.75;;;-13.00
69420;BMP280;56612;52.030;113.524;2022-12-01T07:05:43;92708.28;;;-13.03
69420;BMP280;56612;52.030;113.524;2022-12-01T07:08:47;92706.09;;;-13.12
69420;BMP280;56612;52.030;113.524;2022-12-01T07:11:50;92707.31;;;-13.00
69420;BMP280;56612;52.030;113.524;2022-12-01T07:14:53;92699.78;;;-12.98
69420;BMP280;56612;52.030;113.524;2022-12-01T07:17:57;92703.56;;;-12.85
69420;BMP280;56612;52.030;113.524;2022-12-01T07:21:02;92700.69;;;-12.82
69420;BMP280;56612;52.030;113.524;2022-12-01T07:24:06;92692.88;;;-12.76
69420;BMP280;56612;52.030;113.524;2022-12-01T07:27:10;92684.59;;;-12.82
69420;BMP280;56612;52.030;113.524;2022-12-01T07:30:14;92681.09;;;-12.85
69420;BMP280;56612;52.030;113.524;2022-12-01T07:33:17;92677.06;;;-12.80
69420;BMP280;56612;52.030;113.524;2022-12-01T07:36:21;92673.59;;;-12.83
69420;BMP280;56612;52.030;113.524;2022-12-01T07:39:25;92667.47;;;-12.93
69420;BMP280;56612;52.030;113.524;2022-12-01T07:42:28;92671.72;;;-12.82
69420;BMP280;56612;52.030;113.524;2022-12-01T07:45:33;92660.63;;;-12.77
69420;BMP280;56612;52.030;113.524;2022-12-01T07:48:37;92664.31;;;-12.73
69420;BMP280;56612;52.030;113.524;2022-12-01T07:51:41;92664.31;;;-12.86
69420;BMP280;56612;52.030;113.524;2022-12-01T07:54:45;92659.06;;;-12.80
69420;BMP280;56612;52.030;113.524;2022-12-01T07:57:48;92653.69;;;-12.96
69420;BMP280;56612;52.030;113.524;2022-12-01T08:00:53;92660.66;;;-12.91
69420;BMP280;56612;52.030;113.524;2022-12-01T08:03:58;92659.34;;;-12.97
69420;BMP280;56612;52.030;113.524;2022-12-01T08:07:02;92657.75;;;-13.00
69420;BMP280;56612;52.030;113.524;2022-12-01T08:10:06;92646.31;;;-12.99
69420;BMP280;56612;52.030;113.524;2022-12-01T08:13:10;92666.88;;;-12.99
69420;BMP280;56612;52.030;113.524;2022-12-01T08:16:21;92657.28;;;-12.99
69420;BMP280;56612;52.030;113.524;2022-12-01T08:19:25;92653.81;;;-13.01
69420;BMP280;56612;52.030;113.524;2022-12-01T08:22:29;92652.44;;;-13.02
69420;BMP280;56612;52.030;113.524;2022-12-01T08:25:32;92641.34;;;-13.10
69420;BMP280;56612;52.030;113.524;2022-12-01T08:28:36;92652.41;;;-13.16
69420;BMP280;56612;52.030;113.524;2022-12-01T08:31:42;92638.97;;;-13.22
69420;BMP280;56612;52.030;113.524;2022-12-01T08:34:46;92640.47;;;-13.13
69420;BMP280;56612;52.030;113.524;2022-12-01T08:37:54;92640.56;;;-13.19
69420;BMP280;56612;52.030;113.524;2022-12-01T08:41:03;92631.06;;;-13.24
69420;BMP280;56612;52.030;113.524;2022-12-01T08:44:09;92627.38;;;-13.15
69420;BMP280;56612;52.030;113.524;2022-12-01T08:47:12;92626.94;;;-13.14
69420;BMP280;56612;52.030;113.524;2022-12-01T08:50:19;92621.56;;;-13.16
69420;BMP280;56612;52.030;113.524;2022-12-01T08:53:22;92619.50;;;-13.04
69420;BMP280;56612;52.030;113.524;2022-12-01T08:56:33;92622.56;;;-13.05
69420;BMP280;56612;52.030;113.524;2022-12-01T08:59:36;92613.06;;;-13.10
69420;BMP280;56612;52.030;113.524;2022-12-01T09:02:40;92622.97;;;-13.01
69420;BMP280;56612;52.030;113.524;2022-12-01T09:05:44;92628.69;;;-12.95
69420;BMP280;56612;52.030;113.524;2022-12-01T09:08:47;92625.03;;;-12.87
69420;BMP280;56612;52.030;113.524;2022-12-01T09:11:51;92617.72;;;-12.82
69420;BMP280;56612;52.030;113.524;2022-12-01T09:14:54;92619.31;;;-13.06
69420;BMP280;56612;52.030;113.524;2022-12-01T09:17:58;92618.91;;;-12.97
69420;BMP280;56612;52.030;113.524;2022-12-01T09:21:13;92611.09;;;-12.91
69420;BMP280;56612;52.030;113.524;2022-12-01T09:24:17;92606.06;;;-12.83
69420;BMP280;56612;52.030;113.524;2022-12-01T09:27:21;92605.56;;;-12.82
69420;BMP280;56612;52.030;113.524;2022-12-01T09:30:25;92601.50;;;-12.77
69420;BMP280;56612;52.030;113.524;2022-12-01T09:33:28;92592.75;;;-12.61
69420;BMP280;56612;52.030;113.524;2022-12-01T09:36:34;92598.75;;;-12.79
69420;BMP280;56612;52.030;113.524;2022-12-01T09:39:39;92608.63;;;-12.70
69420;BMP280;56612;52.030;113.524;2022-12-01T09:42:44;92595.72;;;-12.57
69420;BMP280;56612;52.030;113.524;2022-12-01T09:46:01;92594.34;;;-12.58
69420;BMP280;56612;52.030;113.524;2022-12-01T09:49:18;92584.84;;;-12.63
69420;BMP280;56612;52.030;113.524;2022-12-01T09:52:28;92587.09;;;-12.59
69420;BMP280;56612;52.030;113.524;2022-12-01T09:55:33;92582.19;;;-12.57
69420;BMP280;56612;52.030;113.524;2022-12-01T09:58:37;92574.66;;;-12.69
69420;BMP280;56612;52.030;113.524;2022-12-01T10:01:45;92571.50;;;-12.75
69420;BMP280;56612;52.030;113.524;2022-12-01T10:04:49;92576.47;;;-12.77
69420;BMP280;56612;52.030;113.524;2022-12-01T10:07:57;92574.59;;;-12.76
69420;BMP280;56612;52.030;113.524;2022-12-01T10:11:15;92573.38;;;-12.75
69420;BMP280;56612;52.030;113.524;2022-12-01T10:14:22;92563.13;;;-12.89
69420;BMP280;56612;52.030;113.524;2022-12-01T10:21:02;92572.03;;;-12.90
69420;BMP280;56612;52.030;113.524;2022-12-01T10:30:35;92557.13;;;-12.91
69420;BMP280;56612;52.030;113.524;2022-12-01T10:34:07;92562.25;;;-12.91
69420;BMP280;56612;52.030;113.524;2022-12-01T10:37:22;92560.94;;;-12.84
69420;BMP280;56612;52.030;113.524;2022-12-01T10:40:27;92559.19;;;-12.90
69420;BMP280;56612;52.030;113.524;2022-12-01T10:43:40;92564.03;;;-12.99
69420;BMP280;56612;52.030;113.524;2022-12-01T10:46:49;92553.34;;;-12.90
69420;BMP280;56612;52.030;113.524;2022-12-01T10:49:54;92543.63;;;-12.84
69420;BMP280;56612;52.030;113.524;2022-12-01T10:52:57;92535.75;;;-12.86
69420;BMP280;56612;52.030;113.524;2022-12-01T10:56:18;92545.22;;;-12.81
69420;BMP280;56612;52.030;113.524;2022-12-01T11:02:32;92550.19;;;-12.83
69420;BMP280;56612;52.030;113.524;2022-12-01T11:05:39;92533.16;;;-12.73
69420;BMP280;56612;52.030;113.524;2022-12-01T11:08:49;92544.31;;;-12.70
69420;BMP280;56612;52.030;113.524;2022-12-01T11:12:01;92535.59;;;-12.67
69420;BMP280;56612;52.030;113.524;2022-12-01T11:15:05;92526.13;;;-12.72
69420;BMP280;56612;52.030;113.524;2022-12-01T11:18:22;92520.31;;;-12.73
69420;BMP280;56612;52.030;113.524;2022-12-01T11:21:26;92527.38;;;-12.66
69420;BMP280;56612;52.030;113.524;2022-12-01T11:24:42;92511.84;;;-12.73
69420;BMP280;56612;52.030;113.524;2022-12-01T11:27:51;92517.66;;;-12.59
69420;BMP280;56612;52.030;113.524;2022-12-01T11:31:03;92511.44;;;-12.64
69420;BMP280;56612;52.030;113.524;2022-12-01T11:34:27;92499.28;;;-12.64
69420;BMP280;56612;52.030;113.524;2022-12-01T11:37:42;92504.41;;;-12.64
69420;BMP280;56612;52.030;113.524;2022-12-01T11:41:01;92491.38;;;-12.66
69420;BMP280;56612;52.030;113.524;2022-12-01T11:44:17;92495.72;;;-12.74
69420;BMP280;56612;52.030;113.524;2022-12-01T11:47:59;92495.69;;;-12.60
69420;BMP280;56612;52.030;113.524;2022-12-01T11:51:06;92487.59;;;-12.65
69420;BMP280;56612;52.030;113.524;2022-12-01T11:54:20;92479.06;;;-12.59
69420;BMP280;56612;52.030;113.524;2022-12-01T11:57:25;92477.72;;;-12.40
69420;BMP280;56612;52.030;113.524;2022-12-01T12:00:49;92475.56;;;-12.49
69420;BMP280;56612;52.030;113.524;2022-12-01T12:07:46;92471.13;;;-12.48
69420;BMP280;56612;52.030;113.524;2022-12-01T12:14:31;92466.22;;;-12.39
69420;BMP280;56612;52.030;113.524;2022-12-01T12:21:01;92455.56;;;-12.43
69420;BMP280;56612;52.030;113.524;2022-12-01T12:37:42;92451.22;;;-12.48
69420;BMP280;56612;52.030;113.524;2022-12-01T12:51:45;92426.88;;;-12.47
69420;BMP280;56612;52.030;113.524;2022-12-01T12:54:55;92429.50;;;-12.39
69420;BMP280;56612;52.030;113.524;2022-12-01T12:58:09;92422.34;;;-12.33
69420;BMP280;56612;52.030;113.524;2022-12-01T13:01:22;92427.22;;;-12.50
69420;BMP280;56612;52.030;113.524;2022-12-01T13:07:52;92432.00;;;-12.47
69420;BMP280;56612;52.030;113.524;2022-12-01T13:11:15;92430.72;;;-12.61
69420;BMP280;56612;52.030;113.524;2022-12-01T13:14:29;92434.16;;;-12.58
69420;BMP280;56612;52.030;113.524;2022-12-01T13:17:40;92423.88;;;-12.58
69420;BMP280;56612;52.030;113.524;2022-12-01T13:20:45;92424.00;;;-12.43
69420;BMP280;56612;52.030;113.524;2022-12-01T13:23:50;92417.66;;;-12.63
69420;BMP280;56612;52.030;113.524;2022-12-01T13:26:59;92419.59;;;-12.56
69420;BMP280;56612;52.030;113.524;2022-12-01T13:30:16;92411.38;;;-12.54
69420;BMP280;56612;52.030;113.524;2022-12-01T13:33:21;92411.13;;;-12.64
69420;BMP280;56612;52.030;113.524;2022-12-01T13:36:26;92406.75;;;-12.56
69420;BMP280;56612;52.030;113.524;2022-12-01T13:39:53;92403.09;;;-12.60
69420;BMP280;56612;52.030;113.524;2022-12-01T13:43:03;92395.66;;;-12.72
69420;BMP280;56612;52.030;113.524;2022-12-01T13:46:28;92394.28;;;-12.52
69420;BMP280;56612;52.030;113.524;2022-12-01T13:49:44;92396.34;;;-12.71
69420;BMP280;56612;52.030;113.524;2022-12-01T13:52:49;92392.06;;;-12.90
69420;BMP280;56612;52.030;113.524;2022-12-01T13:58:58;92385.94;;;-12.87
69420;BMP280;56612;52.030;113.524;2022-12-01T14:02:14;92377.66;;;-12.72
69420;BMP280;56612;52.030;113.524;2022-12-01T14:11:33;92369.78;;;-13.08
69420;BMP280;56612;52.030;113.524;2022-12-01T14:14:40;92369.69;;;-13.02
69420;BMP280;56612;52.030;113.524;2022-12-01T14:17:44;92375.25;;;-13.12
69420;BMP280;56612;52.030;113.524;2022-12-01T14:20:49;92365.50;;;-13.26
69420;BMP280;56612;52.030;113.524;2022-12-01T14:24:01;92359.81;;;-13.32
69420;BMP280;56612;52.030;113.524;2022-12-01T14:27:08;92347.44;;;-13.34
69420;BMP280;56612;52.030;113.524;2022-12-01T14:34:09;92346.53;;;-13.23
69420;BMP280;56612;52.030;113.524;2022-12-01T14:37:24;92344.47;;;-13.04
69420;BMP280;56612;52.030;113.524;2022-12-01T14:40:30;92346.56;;;-13.16
69420;BMP280;56612;52.030;113.524;2022-12-01T14:43:34;92355.69;;;-13.15
69420;BMP280;56612;52.030;113.524;2022-12-01T14:50:16;92353.09;;;-13.35
69420;BMP280;56612;52.030;113.524;2022-12-01T14:53:26;92350.44;;;-13.43
69420;BMP280;56612;52.030;113.524;2022-12-01T14:56:35;92349.41;;;-13.40
69420;BMP280;56612;52.030;113.524;2022-12-01T14:59:38;92359.41;;;-13.37
69420;BMP280;56612;52.030;113.524;2022-12-01T15:03:05;92354.19;;;-13.44
69420;BMP280;56612;52.030;113.524;2022-12-01T15:06:09;92353.50;;;-13.45
69420;BMP280;56612;52.030;113.524;2022-12-01T15:09:20;92355.69;;;-13.49
69420;BMP280;56612;52.030;113.524;2022-12-01T15:12:36;92357.00;;;-13.55
69420;BMP280;56612;52.030;113.524;2022-12-01T15:15:49;92354.00;;;-13.59
69420;BMP280;56612;52.030;113.524;2022-12-01T15:18:53;92345.13;;;-13.58
69420;BMP280;56612;52.030;113.524;2022-12-01T15:21:58;92346.22;;;-13.67
69420;BMP280;56612;52.030;113.524;2022-12-01T15:25:06;92352.47;;;-13.63
69420;BMP280;56612;52.030;113.524;2022-12-01T15:28:17;92354.16;;;-13.65
69420;BMP280;56612;52.030;113.524;2022-12-01T15:31:21;92353.69;;;-13.77
69420;BMP280;56612;52.030;113.524;2022-12-01T15:37:32;92340.59;;;-13.79
69420;BMP280;56612;52.030;113.524;2022-12-01T15:40:37;92335.19;;;-13.75
69420;BMP280;56612;52.030;113.524;2022-12-01T15:44:01;92331.31;;;-13.69
69420;BMP280;56612;52.030;113.524;2022-12-01T15:50:59;92331.91;;;-13.63
69420;BMP280;56612;52.030;113.524;2022-12-01T15:54:04;92325.19;;;-13.52
69420;BMP280;56612;52.030;113.524;2022-12-01T15:57:15;92328.53;;;-13.44
69420;BMP280;56612;52.030;113.524;2022-12-01T16:00:21;92319.78;;;-13.41
69420;BMP280;56612;52.030;113.524;2022-12-01T16:03:26;92328.56;;;-13.37
69420;BMP280;56612;52.030;113.524;2022-12-01T16:06:33;92325.31;;;-13.37
69420;BMP280;56612;52.030;113.524;2022-12-01T16:09:39;92327.59;;;-13.47
69420;BMP280;56612;52.030;113.524;2022-12-01T16:12:43;92329.06;;;-13.38
69420;BMP280;56612;52.030;113.524;2022-12-01T16:15:47;92334.63;;;-13.47
69420;BMP280;56612;52.030;113.524;2022-12-01T16:18:57;92331.31;;;-13.55
69420;BMP280;56612;52.030;113.524;2022-12-01T16:22:22;92332.97;;;-13.58
69420;BMP280;56612;52.030;113.524;2022-12-01T16:25:34;92334.19;;;-13.59
69420;BMP280;56612;52.030;113.524;2022-12-01T16:28:39;92327.16;;;-13.58
69420;BMP280;56612;52.030;113.524;2022-12-01T16:31:44;92331.09;;;-13.57
69420;BMP280;56612;52.030;113.524;2022-12-01T16:35:24;92321.47;;;-13.65
69420;BMP280;56612;52.030;113.524;2022-12-01T16:38:29;92322.16;;;-13.64
69420;BMP280;56612;52.030;113.524;2022-12-01T16:41:32;92328.06;;;-13.69
69420;BMP280;56612;52.030;113.524;2022-12-01T16:44:40;92318.38;;;-13.63
69420;BMP280;56612;52.030;113.524;2022-12-01T16:47:48;92317.09;;;-13.56
69420;BMP280;56612;52.030;113.524;2022-12-01T16:50:52;92325.81;;;-13.73
69420;BMP280;56612;52.030;113.524;2022-12-01T16:53:58;92327.91;;;-13.84
69420;BMP280;56612;52.030;113.524;2022-12-01T16:57:03;92330.75;;;-13.88
69420;BMP280;56612;52.030;113.524;2022-12-01T17:00:07;92321.47;;;-13.78
69420;BMP280;56612;52.030;113.524;2022-12-01T17:03:15;92325.16;;;-13.87
69420;BMP280;56612;52.030;113.524;2022-12-01T17:06:20;92323.59;;;-14.03
69420;BMP280;56612;52.030;113.524;2022-12-01T17:09:24;92335.94;;;-14.15
69420;BMP280;56612;52.030;113.524;2022-12-01T17:12:27;92335.13;;;-14.09
69420;BMP280;56612;52.030;113.524;2022-12-01T17:15:32;92333.44;;;-14.20
69420;BMP280;56612;52.030;113.524;2022-12-01T17:18:37;92341.56;;;-14.29
69420;BMP280;56612;52.030;113.524;2022-12-01T17:21:40;92336.22;;;-14.18
69420;BMP280;56612;52.030;113.524;2022-12-01T17:24:44;92335.31;;;-14.21
69420;BMP280;56612;52.030;113.524;2022-12-01T17:27:48;92332.78;;;-14.07
69420;BMP280;56612;52.030;113.524;2022-12-01T17:30:52;92343.03;;;-14.07
69420;BMP280;56612;52.030;113.524;2022-12-01T17:33:56;92339.69;;;-14.16
69420;BMP280;56612;52.030;113.524;2022-12-01T17:36:59;92343.03;;;-14.21
69420;BMP280;56612;52.030;113.524;2022-12-01T17:40:04;92334.75;;;-14.27
69420;BMP280;56612;52.030;113.524;2022-12-01T17:43:08;92333.06;;;-14.24
69420;BMP280;56612;52.030;113.524;2022-12-01T17:46:12;92324.59;;;-14.19
69420;BMP280;56612;52.030;113.524;2022-12-01T17:49:16;92325.56;;;-14.09
69420;BMP280;56612;52.030;113.524;2022-12-01T17:52:20;92322.69;;;-14.05
69420;BMP280;56612;52.030;113.524;2022-12-01T17:55:30;92321.00;;;-13.90
69420;BMP280;56612;52.030;113.524;2022-12-01T17:58:34;92312.00;;;-13.83
69420;BMP280;56612;52.030;113.524;2022-12-01T18:01:37;92319.63;;;-13.77
69420;BMP280;56612;52.030;113.524;2022-12-01T18:04:42;92299.78;;;-13.90
69420;BMP280;56612;52.030;113.524;2022-12-01T18:07:46;92310.50;;;-13.78
69420;BMP280;56612;52.030;113.524;2022-12-01T18:10:50;92318.53;;;-13.82
69420;BMP280;56612;52.030;113.524;2022-12-01T18:13:54;92317.56;;;-14.05
69420;BMP280;56612;52.030;113.524;2022-12-01T18:16:58;92317.28;;;-14.28
69420;BMP280;56612;52.030;113.524;2022-12-01T18:20:02;92326.63;;;-14.44
69420;BMP280;56612;52.030;113.524;2022-12-01T18:23:06;92327.00;;;-14.53
69420;BMP280;56612;52.030;113.524;2022-12-01T18:26:11;92319.03;;;-14.63
69420;BMP280;56612;52.030;113.524;2022-12-01T18:29:19;92334.28;;;-14.71
69420;BMP280;56612;52.030;113.524;2022-12-01T18:32:30;92333.19;;;-14.75
69420;BMP280;56612;52.030;113.524;2022-12-01T18:35:40;92329.13;;;-14.84
69420;BMP280;56612;52.030;113.524;2022-12-01T18:38:44;92334.25;;;-14.84
69420;BMP280;56612;52.030;113.524;2022-12-01T18:41:50;92332.00;;;-14.88
69420;BMP280;56612;52.030;113.524;2022-12-01T18:44:54;92335.38;;;-14.79
69420;BMP280;56612;52.030;113.524;2022-12-01T18:47:58;92324.84;;;-14.76
69420;BMP280;56612;52.030;113.524;2022-12-01T18:51:03;92334.00;;;-14.67
69420;BMP280;56612;52.030;113.524;2022-12-01T18:54:11;92335.69;;;-14.56
69420;BMP280;56612;52.030;113.524;2022-12-01T18:57:15;92333.50;;;-14.52
69420;BMP280;56612;52.030;113.524;2022-12-01T19:00:21;92339.66;;;-14.42
69420;BMP280;56612;52.030;113.524;2022-12-01T19:03:30;92329.88;;;-14.57
69420;BMP280;56612;52.030;113.524;2022-12-01T19:06:35;92331.75;;;-14.57
69420;BMP280;56612;52.030;113.524;2022-12-01T19:09:39;92333.03;;;-14.64
69420;BMP280;56612;52.030;113.524;2022-12-01T19:12:44;92335.59;;;-14.64
69420;BMP280;56612;52.030;113.524;2022-12-01T19:15:48;92331.44;;;-14.54
69420;BMP280;56612;52.030;113.524;2022-12-01T19:18:53;92334.41;;;-14.63
69420;BMP280;56612;52.030;113.524;2022-12-01T19:21:56;92335.03;;;-14.57
69420;BMP280;56612;52.030;113.524;2022-12-01T19:25:01;92342.81;;;-14.49
69420;BMP280;56612;52.030;113.524;2022-12-01T19:28:08;92344.41;;;-14.46
69420;BMP280;56612;52.030;113.524;2022-12-01T19:31:17;92339.16;;;-14.41
69420;BMP280;56612;52.030;113.524;2022-12-01T19:34:21;92335.91;;;-14.41
69420;BMP280;56612;52.030;113.524;2022-12-01T19:37:25;92348.84;;;-14.33
69420;BMP280;56612;52.030;113.524;2022-12-01T19:40:29;92331.28;;;-14.29
69420;BMP280;56612;52.030;113.524;2022-12-01T19:43:34;92332.84;;;-14.13
69420;BMP280;56612;52.030;113.524;2022-12-01T19:46:38;92337.91;;;-14.07
69420;BMP280;56612;52.030;113.524;2022-12-01T19:49:42;92339.56;;;-14.10
69420;BMP280;56612;52.030;113.524;2022-12-01T19:52:46;92351.31;;;-14.15
69420;BMP280;56612;52.030;113.524;2022-12-01T19:55:50;92344.41;;;-14.06
69420;BMP280;56612;52.030;113.524;2022-12-01T19:58:55;92345.50;;;-14.02
69420;BMP280;56612;52.030;113.524;2022-12-01T20:01:59;92340.25;;;-14.09
69420;BMP280;56612;52.030;113.524;2022-12-01T20:05:04;92350.53;;;-14.09
69420;BMP280;56612;52.030;113.524;2022-12-01T20:08:08;92346.09;;;-14.09
69420;BMP280;56612;52.030;113.524;2022-12-01T20:11:15;92349.25;;;-14.16
69420;BMP280;56612;52.030;113.524;2022-12-01T20:14:19;92345.28;;;-14.30
69420;BMP280;56612;52.030;113.524;2022-12-01T20:17:23;92333.06;;;-14.24
69420;BMP280;56612;52.030;113.524;2022-12-01T20:20:27;92336.41;;;-14.16
69420;BMP280;56612;52.030;113.524;2022-12-01T20:23:31;92333.16;;;-14.17
69420;BMP280;56612;52.030;113.524;2022-12-01T20:26:47;92343.22;;;-14.19